sensor_id;sensor_type;location;lat;lon;timestamp;temperature;humidity
18207;DHT22;9229;52.354;20.886;2022-07-12T20:10:54;19.30;86.60
18207;DHT22;9229;52.354;20.886;2022-07-12T20:15:56;19.40;85.70
18207;DHT22;9229;52.354;20.886;2022-07-12T20:20:59;19.40;86.20
18207;DHT22;9229;52.354;20.886;2022-07-12T20:26:16;19.40;86.30
18207;DHT22;9229;52.354;20.886;2022-07-12T20:31:19;19.50;86.40
18207;DHT22;9229;52.354;20.886;2022-07-12T20:36:27;19.60;87.30
18207;DHT22;9229;52.354;20.886;2022-07-12T20:41:32;19.60;87.60
18207;DHT22;9229;52.354;20.886;2022-07-12T20:46:38;19.60;88.60
18207;DHT22;9229;52.354;20.886;2022-07-12T20:51:40;19.50;89.20
18207;DHT22;9229;52.354;20.886;2022-07-12T20:56:45;19.50;90.20
18207;DHT22;9229;52.354;20.886;2022-07-12T21:01:49;19.50;90.30
18207;DHT22;9229;52.354;20.886;2022-07-12T21:06:51;19.40;90.30
18207;DHT22;9229;52.354;20.886;2022-07-12T21:11:55;19.40;90.60
18207;DHT22;9229;52.354;20.886;2022-07-12T21:16:57;19.50;90.70
18207;DHT22;9229;52.354;20.886;2022-07-12T21:21:58;19.40;91.50
18207;DHT22;9229;52.354;20.886;2022-07-12T21:27:03;19.20;91.60
18207;DHT22;9229;52.354;20.886;2022-07-12T21:32:05;19.10;92.10
18207;DHT22;9229;52.354;20.886;2022-07-12T21:37:08;19.00;91.70
18207;DHT22;9229;52.354;20.886;2022-07-12T21:42:11;18.90;91.90
18207;DHT22;9229;52.354;20.886;2022-07-12T21:47:13;18.90;91.70
18207;DHT22;9229;52.354;20.886;2022-07-12T21:52:15;18.90;91.50
18207;DHT22;9229;52.354;20.886;2022-07-12T21:57:21;19.00;91.40
18207;DHT22;9229;52.354;20.886;2022-07-12T22:02:23;19.00;92.40
18207;DHT22;9229;52.354;20.886;2022-07-12T22:07:28;18.80;92.40
18207;DHT22;9229;52.354;20.886;2022-07-12T22:12:44;18.70;92.70
18207;DHT22;9229;52.354;20.886;2022-07-12T22:17:49;18.60;92.90
18207;DHT22;9229;52.354;20.886;2022-07-12T22:22:52;18.50;94.00
18207;DHT22;9229;52.354;20.886;2022-07-12T22:27:55;18.30;94.20
18207;DHT22;9229;52.354;20.886;2022-07-12T22:33:00;18.30;93.60
18207;DHT22;9229;52.354;20.886;2022-07-12T22:38:02;18.40;93.60
18207;DHT22;9229;52.354;20.886;2022-07-12T22:43:09;18.40;93.50
18207;DHT22;9229;52.354;20.886;2022-07-12T22:48:11;18.40;93.60
18207;DHT22;9229;52.354;20.886;2022-07-12T22:53:13;18.40;93.80
18207;DHT22;9229;52.354;20.886;2022-07-12T22:58:16;18.40;93.80
18207;DHT22;9229;52.354;20.886;2022-07-12T23:03:18;18.50;93.80
18207;DHT22;9229;52.354;20.886;2022-07-12T23:08:19;18.50;93.90
18207;DHT22;9229;52.354;20.886;2022-07-12T23:13:23;18.50;94.00
18207;DHT22;9229;52.354;20.886;2022-07-12T23:18:24;18.50;94.00
18207;DHT22;9229;52.354;20.886;2022-07-12T23:23:26;18.50;94.40
18207;DHT22;9229;52.354;20.886;2022-07-12T23:28:29;18.40;94.70
18207;DHT22;9229;52.354;20.886;2022-07-12T23:33:31;18.40;95.10
18207;DHT22;9229;52.354;20.886;2022-07-12T23:38:34;18.40;95.40
18207;DHT22;9229;52.354;20.886;2022-07-12T23:43:38;18.30;95.80
18207;DHT22;9229;52.354;20.886;2022-07-12T23:48:40;18.20;96.20
18207;DHT22;9229;52.354;20.886;2022-07-12T23:53:42;18.20;96.30
18207;DHT22;9229;52.354;20.886;2022-07-12T23:58:45;18.20;96.60
